Terminal Aerodrome Forecast
Issued by NWS

Home | Current Version | Previous Version | Text Only | Print | Product List | Glossary Off
Versions: 1 2 3 4 5 6 7 8 9 10 11 12 13 14 15

966
FTUS45 KRIW 182104 AAA
TAFCPR
TAF AMD
KCPR 182104Z 1821/1918 22025G34KT P6SM SCT200
     FM182300 22020KT P6SM SCT250
     FM190100 22015KT P6SM BKN200 WS015/22045KT
     FM190700 21020KT P6SM BKN250 WS015/22050KT=

USA.gov is the U.S. government's official web portal to all federal, state and local government web resources and services.